Huvudsida
METAR-TAF:

METAR-TAF

Flygplatser :

Brunei flygplats

Brunei, Brunei

latitud: 04-56N, longitud: 114-56E, höjd: 22 m

Aktuellt väderrapport

Denna rapport gjordes för 23 minuter sedan, klockan 11:00 UTC
Vind 3 kt från nord
Temperatur 30°C
Fuktighet 75%
Tryck 1008 hPa
Sikt: 7000 m
Få moln på en höjd av 1600 ft
Brutna moln på en höjd av 30000 ft

METAR: WBSB 191100Z 35003KT 7000 FEW016 BKN300 30/25 Q1008 NOSIG

Tid: 19:23 (11:23 UTC)

Väderprognos

Denna rapport gjordes för 6 timmar och 33 minuter sedan, klockan 04:50 UTC
Prognos gäller från 19 kl. 06 UTC till 20 kl. 12 UTC
Vind 8 kt från väst/nordväst
Sikt: 7000 m
Spridda moln på en höjd av 1600 ft
Få moln på en höjd av 1700 ft, Cumulonimbus.
Blir
från 19 kl. 11 UTC till 19 kl. 13 UTC
Vind 2 kt från syd/sydväst
Få moln på en höjd av 1500 ft

TAF: WBSB 190450Z 1906/2012 30008KT 7000 SCT016 FEW017CB BECMG 1911/1913 20002KT FEW015

Aktuella väderrapporter och prognoser från 4000 flygplatser (METAR- och TAF-rapporter).

De tillgängliga stationerna syns som gula och röda prickar på kartan.

För musen över prickarna för att se namnen på stationerna.

Klicka sedan för att få väderrapporter och prognoser.

För att ändra kartan: Klicka på de gröna knapparna med ett svart kors på för att zooma in; den gröna knappen med ett streck på för att zooma ut; eller på de gröna pilarna för angränsande kartor.


METAR-TAF: